createdAt,value
2022-09-28T00:02:03.066Z,9.85
2022-09-28T00:07:24.929Z,9.90
2022-09-28T00:12:46.630Z,9.91
2022-09-28T00:18:08.352Z,9.96
2022-09-28T00:23:30.157Z,9.91
2022-09-28T00:28:53.611Z,9.96
2022-09-28T00:34:16.000Z,10.03
2022-09-28T00:39:41.215Z,10.00
2022-09-28T00:45:03.017Z,10.08
2022-09-28T00:50:29.034Z,10.07
2022-09-28T00:55:57.097Z,10.09
2022-09-28T01:01:18.908Z,10.16
2022-09-28T01:06:40.804Z,10.05
2022-09-28T01:12:02.790Z,10.08
2022-09-28T01:17:24.573Z,10.16
2022-09-28T01:23:17.198Z,10.14
2022-09-28T01:28:42.967Z,10.17
2022-09-28T01:34:13.049Z,10.09
2022-09-28T01:39:39.946Z,10.24
2022-09-28T01:45:07.849Z,10.22
2022-09-28T01:50:35.105Z,10.22
2022-09-28T01:56:03.652Z,10.26
2022-09-28T02:01:34.983Z,10.32
2022-09-28T02:07:02.372Z,10.41
2022-09-28T02:12:26.574Z,10.45
2022-09-28T02:17:49.080Z,10.39
2022-09-28T02:23:11.212Z,10.52
2022-09-28T02:28:32.997Z,10.47
2022-09-28T02:33:57.704Z,10.49
2022-09-28T02:39:19.521Z,10.65
2022-09-28T02:44:53.901Z,10.75
2022-09-28T02:50:24.037Z,10.76
2022-09-28T02:56:20.448Z,10.79
2022-09-28T03:02:00.506Z,10.73
2022-09-28T03:07:27.931Z,10.70
2022-09-28T03:12:52.945Z,10.75
2022-09-28T03:18:14.680Z,10.77
2022-09-28T03:23:36.413Z,10.87
2022-09-28T03:28:58.094Z,10.84
2022-09-28T03:34:19.773Z,10.83
2022-09-28T03:39:41.487Z,10.88
2022-09-28T03:45:03.528Z,10.87
2022-09-28T03:50:25.248Z,10.95
2022-09-28T03:55:46.989Z,10.90
2022-09-28T04:01:17.626Z,10.86
2022-09-28T04:06:40.267Z,10.66
2022-09-28T04:12:04.349Z,10.54
2022-09-28T04:17:26.426Z,10.46
2022-09-28T04:22:48.197Z,10.44
2022-09-28T04:28:28.300Z,10.38
2022-09-28T04:33:50.169Z,10.18
2022-09-28T04:39:13.176Z,10.20
2022-09-28T04:44:34.933Z,10.11
2022-09-28T04:49:56.734Z,10.15
2022-09-28T04:55:18.431Z,10.21
2022-09-28T05:00:40.134Z,10.18
2022-09-28T05:06:02.287Z,10.17
2022-09-28T05:11:24.156Z,9.98
2022-09-28T05:16:46.111Z,9.75
2022-09-28T05:22:11.473Z,9.74
2022-09-28T05:27:33.182Z,9.81
2022-09-28T05:32:54.890Z,9.93
2022-09-28T05:38:16.657Z,9.74
2022-09-28T05:43:39.394Z,9.70
2022-09-28T05:49:01.111Z,9.77
2022-09-28T05:54:22.865Z,9.82
2022-09-28T05:59:44.542Z,9.79
2022-09-28T06:05:06.480Z,9.80
2022-09-28T06:10:28.646Z,9.78
2022-09-28T06:15:50.438Z,9.76
2022-09-28T06:21:15.280Z,9.87
2022-09-28T06:26:36.989Z,9.92
2022-09-28T06:31:58.738Z,9.96
2022-09-28T06:37:20.488Z,10.03
2022-09-28T06:42:42.196Z,10.08
2022-09-28T06:48:05.108Z,10.08
2022-09-28T06:53:28.740Z,10.17
2022-09-28T06:58:50.451Z,10.16
2022-09-28T07:04:12.126Z,10.12
2022-09-28T07:09:37.309Z,10.03
2022-09-28T07:15:03.855Z,10.08
2022-09-28T07:20:26.208Z,10.13
2022-09-28T07:25:50.173Z,10.31
2022-09-28T07:31:12.206Z,10.29
2022-09-28T07:36:35.174Z,10.37
2022-09-28T07:42:02.429Z,10.21
2022-09-28T07:47:34.660Z,10.28
2022-09-28T07:52:57.620Z,10.43
2022-09-28T07:58:20.824Z,10.45
2022-09-28T08:03:48.001Z,10.43
2022-09-28T08:09:09.741Z,10.43
2022-09-28T08:14:34.275Z,10.50
2022-09-28T08:20:14.402Z,10.51
2022-09-28T08:25:38.196Z,10.67
2022-09-28T08:31:03.876Z,10.67
2022-09-28T08:36:25.633Z,10.65
2022-09-28T08:42:23.018Z,10.70
2022-09-28T08:48:15.133Z,10.69
2022-09-28T08:54:14.469Z,10.81
2022-09-28T08:59:58.447Z,10.72
2022-09-28T09:05:29.396Z,10.82
2022-09-28T09:11:22.708Z,10.83
2022-09-28T09:17:12.748Z,10.75
2022-09-28T09:22:49.359Z,10.88
2022-09-28T09:28:48.321Z,10.92
2022-09-28T09:34:25.937Z,11.01
2022-09-28T09:40:02.175Z,11.10
2022-09-28T09:45:30.062Z,11.26
2022-09-28T09:50:59.126Z,11.29
2022-09-28T09:56:34.529Z,11.38
2022-09-28T10:01:56.676Z,11.37
2022-09-28T10:07:24.127Z,11.41
2022-09-28T10:12:46.588Z,11.42
2022-09-28T10:18:14.307Z,11.44
2022-09-28T10:23:37.868Z,11.58
2022-09-28T10:29:04.198Z,11.54
2022-09-28T10:34:28.636Z,11.54
2022-09-28T10:39:55.787Z,11.56
2022-09-28T10:45:23.305Z,11.67
2022-09-28T10:50:57.869Z,11.77
2022-09-28T10:56:23.080Z,11.90
2022-09-28T11:01:44.918Z,11.96
2022-09-28T11:07:18.000Z,11.90
2022-09-28T11:12:44.168Z,11.87
2022-09-28T11:18:25.265Z,11.85
2022-09-28T11:24:07.290Z,11.82
2022-09-28T11:29:43.130Z,11.95
2022-09-28T11:35:16.845Z,12.04
2022-09-28T11:40:51.365Z,12.06
2022-09-28T11:46:19.663Z,12.14
2022-09-28T11:51:43.766Z,12.16
2022-09-28T11:57:11.144Z,12.30
2022-09-28T12:03:00.575Z,12.29
2022-09-28T12:08:40.105Z,12.47
2022-09-28T12:14:04.918Z,12.55
2022-09-28T12:19:39.890Z,12.54
2022-09-28T12:25:03.774Z,12.74
2022-09-28T12:30:30.818Z,12.81
2022-09-28T12:36:07.688Z,12.95
2022-09-28T12:41:55.821Z,12.93
2022-09-28T12:47:55.187Z,12.95
2022-09-28T12:53:41.809Z,12.97
2022-09-28T12:59:23.496Z,12.91
2022-09-28T13:05:05.629Z,12.91
2022-09-28T13:10:36.811Z,12.83
2022-09-28T13:16:05.725Z,12.89
2022-09-28T13:21:40.866Z,12.98
2022-09-28T13:27:10.292Z,12.96
2022-09-28T13:32:33.824Z,12.94
2022-09-28T13:38:17.432Z,12.94
2022-09-28T13:44:10.660Z,12.98
2022-09-28T13:49:48.029Z,12.91
2022-09-28T13:55:28.722Z,12.82
2022-09-28T14:01:13.626Z,12.96
2022-09-28T14:06:35.458Z,13.06
2022-09-28T14:12:49.543Z,13.08
2022-09-28T14:18:16.973Z,13.09
2022-09-28T14:23:50.613Z,13.07
2022-09-28T14:29:28.540Z,13.07
2022-09-28T14:35:00.325Z,13.07
2022-09-28T14:40:49.765Z,13.06
2022-09-28T14:46:11.960Z,13.02
2022-09-28T14:51:35.353Z,13.13
2022-09-28T14:57:04.175Z,13.11
2022-09-28T15:02:36.047Z,13.07
2022-09-28T15:07:58.275Z,13.04
2022-09-28T15:13:25.004Z,13.03
2022-09-28T15:19:18.689Z,13.06
2022-09-28T15:24:46.062Z,12.93
2022-09-28T15:30:33.633Z,12.90
2022-09-28T15:36:02.477Z,12.91
2022-09-28T15:41:25.649Z,12.93
2022-09-28T15:46:56.984Z,12.84
2022-09-28T15:52:35.977Z,12.80
2022-09-28T15:58:13.238Z,12.81
2022-09-28T16:03:35.025Z,12.66
2022-09-28T16:08:56.719Z,12.61
2022-09-28T16:14:21.932Z,12.54
2022-09-28T16:19:43.771Z,12.52
2022-09-28T16:25:05.780Z,12.51
2022-09-28T16:30:32.292Z,12.41
2022-09-28T16:35:54.023Z,12.44
2022-09-28T16:41:19.469Z,12.41
2022-09-28T16:46:44.298Z,12.36
2022-09-28T16:52:13.335Z,12.26
2022-09-28T16:57:35.400Z,12.19
2022-09-28T17:02:58.462Z,12.14
2022-09-28T17:08:23.038Z,12.13
2022-09-28T17:13:45.963Z,11.88
2022-09-28T17:19:23.272Z,11.85
2022-09-28T17:24:46.120Z,11.81
2022-09-28T17:30:09.921Z,11.67
2022-09-28T17:35:34.101Z,11.49
2022-09-28T17:40:58.013Z,11.31
2022-09-28T17:46:27.226Z,11.24
2022-09-28T17:51:50.242Z,11.18
2022-09-28T17:57:11.936Z,11.07
2022-09-28T18:02:33.690Z,10.91
2022-09-28T18:07:55.990Z,10.82
2022-09-28T18:13:17.682Z,10.78
2022-09-28T18:18:39.901Z,10.60
2022-09-28T18:24:01.830Z,10.52
2022-09-28T18:29:23.574Z,10.48
2022-09-28T18:34:45.545Z,10.39
2022-09-28T18:40:09.396Z,10.30
2022-09-28T18:45:31.321Z,10.17
2022-09-28T18:50:53.013Z,10.14
2022-09-28T18:56:20.947Z,10.19
2022-09-28T19:01:43.520Z,10.04
2022-09-28T19:07:09.001Z,9.97
2022-09-28T19:12:34.807Z,10.01
2022-09-28T19:17:57.093Z,9.95
2022-09-28T19:23:18.817Z,9.88
2022-09-28T19:28:40.530Z,9.93
2022-09-28T19:34:02.567Z,9.82
2022-09-28T19:39:24.335Z,9.79
2022-09-28T19:44:46.409Z,9.82
2022-09-28T19:50:10.195Z,9.75
2022-09-28T19:55:37.113Z,9.74
2022-09-28T20:00:59.259Z,9.66
2022-09-28T20:06:22.826Z,9.85
2022-09-28T20:11:46.587Z,9.91
2022-09-28T20:17:09.583Z,9.91
2022-09-28T20:22:31.443Z,9.88
2022-09-28T20:27:53.535Z,9.80
2022-09-28T20:33:19.099Z,9.64
2022-09-28T20:38:51.536Z,9.64
2022-09-28T20:44:13.371Z,9.66
2022-09-28T20:49:35.112Z,9.58
2022-09-28T20:54:56.853Z,9.60
2022-09-28T21:00:18.661Z,9.65
2022-09-28T21:05:40.428Z,9.52
2022-09-28T21:11:02.246Z,9.40
2022-09-28T21:16:27.182Z,9.46
2022-09-28T21:21:48.933Z,9.59
2022-09-28T21:27:10.651Z,9.56
2022-09-28T21:32:35.183Z,9.53
2022-09-28T21:37:57.221Z,9.52
2022-09-28T21:43:18.937Z,9.49
2022-09-28T21:48:41.264Z,9.48
2022-09-28T21:54:03.235Z,9.46
2022-09-28T21:59:25.076Z,9.53
2022-09-28T22:04:46.912Z,9.49
2022-09-28T22:10:12.655Z,9.37
2022-09-28T22:15:34.485Z,9.49
2022-09-28T22:21:30.020Z,9.38
2022-09-28T22:26:51.844Z,9.47
2022-09-28T22:32:13.598Z,9.53
2022-09-28T22:37:35.329Z,9.60
2022-09-28T22:42:57.040Z,9.75
2022-09-28T22:48:18.763Z,9.57
2022-09-28T22:53:40.485Z,9.36
2022-09-28T22:59:02.268Z,9.23
2022-09-28T23:04:24.001Z,9.11
2022-09-28T23:09:45.721Z,9.05
2022-09-28T23:15:08.443Z,9.15
2022-09-28T23:20:30.259Z,9.18
2022-09-28T23:25:53.064Z,9.28
2022-09-28T23:31:20.689Z,9.21
2022-09-28T23:36:42.430Z,9.22
2022-09-28T23:42:04.414Z,9.25
2022-09-28T23:47:26.484Z,9.15
2022-09-28T23:52:48.453Z,9.21
2022-09-28T23:58:11.621Z,9.20
